Terminal Aerodrome Forecast
Issued by NWS

Home | Current Version | Previous Version | Text Only | Print | Product List | Glossary On
Versions: 1 2 3 4 5 6 7 8 9 10 11 12 13 14 15 16
000
FTUS44 KTSA 211100
TAFMLC
TAF
KMLC 211136Z 2112/2212 00000KT 3SM BR SCT070 BKN090
     FM211400 22005KT P6SM BKN090
     FM211700 35008KT P6SM VCSH BKN050 BKN090
     FM212100 01010KT P6SM SCT040 SCT100
     FM220200 01004KT P6SM SKC=

USA.gov is the U.S. government's official web portal to all federal, state and local government web resources and services.